sensor_id;sensor_type;location;lat;lon;timestamp;P1;durP1;ratioP1;P2;durP2;ratioP2
74415;SDS011;62850;42.428;25.618;2023-02-02T00:01:43;2.55;;;1.10;;
74415;SDS011;62850;42.428;25.618;2023-02-02T00:04:17;3.08;;;1.23;;
74415;SDS011;62850;42.428;25.618;2023-02-02T00:06:48;4.13;;;1.30;;
74415;SDS011;62850;42.428;25.618;2023-02-02T00:09:14;4.82;;;1.70;;
74415;SDS011;62850;42.428;25.618;2023-02-02T00:11:41;3.78;;;1.50;;
74415;SDS011;62850;42.428;25.618;2023-02-02T00:14:08;4.47;;;1.45;;
74415;SDS011;62850;42.428;25.618;2023-02-02T00:16:36;4.55;;;1.67;;
74415;SDS011;62850;42.428;25.618;2023-02-02T00:19:04;4.22;;;1.80;;
74415;SDS011;62850;42.428;25.618;2023-02-02T00:21:36;4.40;;;1.83;;
74415;SDS011;62850;42.428;25.618;2023-02-02T00:24:02;6.45;;;2.83;;
74415;SDS011;62850;42.428;25.618;2023-02-02T00:26:29;5.70;;;2.40;;
74415;SDS011;62850;42.428;25.618;2023-02-02T00:28:55;8.13;;;3.00;;
74415;SDS011;62850;42.428;25.618;2023-02-02T00:31:20;8.00;;;2.75;;
74415;SDS011;62850;42.428;25.618;2023-02-02T00:33:47;6.07;;;2.95;;
74415;SDS011;62850;42.428;25.618;2023-02-02T00:36:14;7.05;;;3.00;;
74415;SDS011;62850;42.428;25.618;2023-02-02T00:38:40;7.47;;;3.08;;
74415;SDS011;62850;42.428;25.618;2023-02-02T00:41:05;5.13;;;2.63;;
74415;SDS011;62850;42.428;25.618;2023-02-02T00:43:31;4.97;;;2.40;;
74415;SDS011;62850;42.428;25.618;2023-02-02T00:45:57;6.65;;;2.63;;
74415;SDS011;62850;42.428;25.618;2023-02-02T00:48:23;8.25;;;2.60;;
74415;SDS011;62850;42.428;25.618;2023-02-02T00:50:50;6.65;;;2.42;;
74415;SDS011;62850;42.428;25.618;2023-02-02T00:53:16;7.75;;;2.90;;
74415;SDS011;62850;42.428;25.618;2023-02-02T00:55:42;5.30;;;2.10;;
74415;SDS011;62850;42.428;25.618;2023-02-02T00:58:08;5.25;;;2.42;;
74415;SDS011;62850;42.428;25.618;2023-02-02T01:00:33;7.22;;;2.92;;
74415;SDS011;62850;42.428;25.618;2023-02-02T01:02:59;6.07;;;2.80;;
74415;SDS011;62850;42.428;25.618;2023-02-02T01:05:29;4.32;;;1.85;;
74415;SDS011;62850;42.428;25.618;2023-02-02T01:07:55;3.15;;;1.23;;
74415;SDS011;62850;42.428;25.618;2023-02-02T01:10:21;3.70;;;1.23;;
74415;SDS011;62850;42.428;25.618;2023-02-02T01:12:47;2.92;;;1.20;;
74415;SDS011;62850;42.428;25.618;2023-02-02T01:15:12;3.78;;;1.40;;
74415;SDS011;62850;42.428;25.618;2023-02-02T01:17:38;3.03;;;1.27;;
74415;SDS011;62850;42.428;25.618;2023-02-02T01:20:04;4.25;;;1.75;;
74415;SDS011;62850;42.428;25.618;2023-02-02T01:22:31;2.60;;;1.10;;
74415;SDS011;62850;42.428;25.618;2023-02-02T01:24:58;3.70;;;1.40;;
74415;SDS011;62850;42.428;25.618;2023-02-02T01:27:24;3.78;;;1.50;;
74415;SDS011;62850;42.428;25.618;2023-02-02T01:29:49;3.22;;;1.20;;
74415;SDS011;62850;42.428;25.618;2023-02-02T01:32:15;3.33;;;1.20;;
74415;SDS011;62850;42.428;25.618;2023-02-02T01:34:40;3.28;;;1.40;;
74415;SDS011;62850;42.428;25.618;2023-02-02T01:37:08;2.60;;;1.00;;
74415;SDS011;62850;42.428;25.618;2023-02-02T01:39:34;3.58;;;1.40;;
74415;SDS011;62850;42.428;25.618;2023-02-02T01:42:00;1.40;;;0.73;;
74415;SDS011;62850;42.428;25.618;2023-02-02T01:47:26;3.10;;;1.08;;
74415;SDS011;62850;42.428;25.618;2023-02-02T01:49:55;2.80;;;1.17;;
74415;SDS011;62850;42.428;25.618;2023-02-02T01:52:22;3.03;;;1.40;;
74415;SDS011;62850;42.428;25.618;2023-02-02T01:54:50;3.58;;;1.70;;
74415;SDS011;62850;42.428;25.618;2023-02-02T01:57:28;4.13;;;1.42;;
74415;SDS011;62850;42.428;25.618;2023-02-02T01:59:59;3.63;;;1.38;;
74415;SDS011;62850;42.428;25.618;2023-02-02T02:02:28;3.13;;;1.20;;
74415;SDS011;62850;42.428;25.618;2023-02-02T02:04:56;5.47;;;1.77;;
74415;SDS011;62850;42.428;25.618;2023-02-02T02:07:24;3.03;;;1.35;;
74415;SDS011;62850;42.428;25.618;2023-02-02T02:09:49;7.75;;;2.10;;
74415;SDS011;62850;42.428;25.618;2023-02-02T02:12:15;6.22;;;2.65;;
74415;SDS011;62850;42.428;25.618;2023-02-02T02:14:42;5.85;;;2.78;;
74415;SDS011;62850;42.428;25.618;2023-02-02T02:36:03;7.35;;;3.10;;
74415;SDS011;62850;42.428;25.618;2023-02-02T02:38:34;15.40;;;5.00;;
74415;SDS011;62850;42.428;25.618;2023-02-02T02:41:02;12.15;;;4.90;;
74415;SDS011;62850;42.428;25.618;2023-02-02T02:43:37;9.65;;;3.95;;
74415;SDS011;62850;42.428;25.618;2023-02-02T02:46:09;8.20;;;3.75;;
74415;SDS011;62850;42.428;25.618;2023-02-02T02:48:36;9.50;;;3.95;;
74415;SDS011;62850;42.428;25.618;2023-02-02T02:51:48;6.22;;;3.03;;
74415;SDS011;62850;42.428;25.618;2023-02-02T02:54:05;5.78;;;2.55;;
74415;SDS011;62850;42.428;25.618;2023-02-02T02:56:32;6.43;;;2.47;;
74415;SDS011;62850;42.428;25.618;2023-02-02T02:59:33;4.93;;;2.22;;
74415;SDS011;62850;42.428;25.618;2023-02-02T03:02:18;4.28;;;1.98;;
74415;SDS011;62850;42.428;25.618;2023-02-02T03:05:22;3.75;;;1.67;;
74415;SDS011;62850;42.428;25.618;2023-02-02T03:07:59;4.55;;;2.17;;
74415;SDS011;62850;42.428;25.618;2023-02-02T03:10:31;5.20;;;1.80;;
74415;SDS011;62850;42.428;25.618;2023-02-02T03:12:58;5.78;;;1.83;;
74415;SDS011;62850;42.428;25.618;2023-02-02T03:15:24;4.85;;;1.90;;
74415;SDS011;62850;42.428;25.618;2023-02-02T03:17:50;4.28;;;1.90;;
74415;SDS011;62850;42.428;25.618;2023-02-02T03:20:17;3.78;;;1.77;;
74415;SDS011;62850;42.428;25.618;2023-02-02T03:22:43;4.80;;;1.98;;
74415;SDS011;62850;42.428;25.618;2023-02-02T03:25:09;4.47;;;1.98;;
74415;SDS011;62850;42.428;25.618;2023-02-02T03:27:37;7.43;;;2.58;;
74415;SDS011;62850;42.428;25.618;2023-02-02T03:30:04;4.25;;;1.95;;
74415;SDS011;62850;42.428;25.618;2023-02-02T03:32:32;3.72;;;1.92;;
74415;SDS011;62850;42.428;25.618;2023-02-02T03:34:58;4.30;;;1.90;;
74415;SDS011;62850;42.428;25.618;2023-02-02T03:37:23;5.47;;;2.17;;
74415;SDS011;62850;42.428;25.618;2023-02-02T03:39:50;6.05;;;2.30;;
74415;SDS011;62850;42.428;25.618;2023-02-02T03:42:15;6.65;;;2.40;;
74415;SDS011;62850;42.428;25.618;2023-02-02T03:44:41;7.22;;;3.13;;
74415;SDS011;62850;42.428;25.618;2023-02-02T03:47:06;9.65;;;4.45;;
74415;SDS011;62850;42.428;25.618;2023-02-02T03:49:32;13.98;;;6.07;;
74415;SDS011;62850;42.428;25.618;2023-02-02T03:51:57;12.10;;;5.55;;
74415;SDS011;62850;42.428;25.618;2023-02-02T03:54:23;11.60;;;6.10;;
74415;SDS011;62850;42.428;25.618;2023-02-02T03:56:48;15.35;;;6.75;;
74415;SDS011;62850;42.428;25.618;2023-02-02T03:59:14;16.83;;;8.18;;
74415;SDS011;62850;42.428;25.618;2023-02-02T04:01:39;16.02;;;7.57;;
74415;SDS011;62850;42.428;25.618;2023-02-02T04:04:05;15.00;;;7.05;;
74415;SDS011;62850;42.428;25.618;2023-02-02T04:06:30;16.42;;;8.32;;
74415;SDS011;62850;42.428;25.618;2023-02-02T04:08:56;18.20;;;8.70;;
74415;SDS011;62850;42.428;25.618;2023-02-02T04:11:21;19.33;;;8.68;;
74415;SDS011;62850;42.428;25.618;2023-02-02T04:13:47;20.75;;;8.52;;
74415;SDS011;62850;42.428;25.618;2023-02-02T04:16:12;16.85;;;7.68;;
74415;SDS011;62850;42.428;25.618;2023-02-02T04:18:38;13.52;;;6.65;;
74415;SDS011;62850;42.428;25.618;2023-02-02T04:21:04;12.68;;;5.25;;
74415;SDS011;62850;42.428;25.618;2023-02-02T04:23:30;11.70;;;5.47;;
74415;SDS011;62850;42.428;25.618;2023-02-02T04:25:56;11.02;;;5.50;;
74415;SDS011;62850;42.428;25.618;2023-02-02T04:28:23;13.40;;;5.60;;
74415;SDS011;62850;42.428;25.618;2023-02-02T04:30:50;13.40;;;5.72;;
74415;SDS011;62850;42.428;25.618;2023-02-02T04:33:16;9.15;;;5.18;;
74415;SDS011;62850;42.428;25.618;2023-02-02T04:35:42;9.77;;;4.75;;
74415;SDS011;62850;42.428;25.618;2023-02-02T04:38:08;9.82;;;4.55;;
74415;SDS011;62850;42.428;25.618;2023-02-02T04:40:36;8.85;;;4.53;;
74415;SDS011;62850;42.428;25.618;2023-02-02T04:43:03;9.65;;;4.53;;
74415;SDS011;62850;42.428;25.618;2023-02-02T04:45:29;12.70;;;5.80;;
74415;SDS011;62850;42.428;25.618;2023-02-02T04:47:54;11.30;;;5.30;;
74415;SDS011;62850;42.428;25.618;2023-02-02T04:50:20;11.63;;;6.00;;
74415;SDS011;62850;42.428;25.618;2023-02-02T04:52:45;9.43;;;4.65;;
74415;SDS011;62850;42.428;25.618;2023-02-02T04:55:11;11.05;;;4.90;;
74415;SDS011;62850;42.428;25.618;2023-02-02T04:57:36;14.00;;;5.18;;
74415;SDS011;62850;42.428;25.618;2023-02-02T05:00:02;10.38;;;5.00;;
74415;SDS011;62850;42.428;25.618;2023-02-02T05:02:28;12.93;;;5.55;;
74415;SDS011;62850;42.428;25.618;2023-02-02T05:04:54;11.73;;;6.03;;
74415;SDS011;62850;42.428;25.618;2023-02-02T05:07:19;10.55;;;5.50;;
74415;SDS011;62850;42.428;25.618;2023-02-02T05:09:45;12.98;;;5.78;;
74415;SDS011;62850;42.428;25.618;2023-02-02T05:12:10;20.63;;;6.68;;
74415;SDS011;62850;42.428;25.618;2023-02-02T05:14:36;16.85;;;8.52;;
74415;SDS011;62850;42.428;25.618;2023-02-02T05:17:01;19.60;;;9.05;;
74415;SDS011;62850;42.428;25.618;2023-02-02T05:19:27;20.08;;;9.63;;
74415;SDS011;62850;42.428;25.618;2023-02-02T05:21:52;21.95;;;9.77;;
74415;SDS011;62850;42.428;25.618;2023-02-02T05:24:18;25.83;;;12.73;;
74415;SDS011;62850;42.428;25.618;2023-02-02T05:26:44;35.78;;;14.38;;
74415;SDS011;62850;42.428;25.618;2023-02-02T05:29:10;39.10;;;17.38;;
74415;SDS011;62850;42.428;25.618;2023-02-02T05:31:35;22.25;;;11.25;;
74415;SDS011;62850;42.428;25.618;2023-02-02T05:34:01;22.92;;;11.80;;
74415;SDS011;62850;42.428;25.618;2023-02-02T05:36:27;18.92;;;8.32;;
74415;SDS011;62850;42.428;25.618;2023-02-02T05:38:52;22.45;;;9.88;;
74415;SDS011;62850;42.428;25.618;2023-02-02T05:41:18;24.13;;;10.10;;
74415;SDS011;62850;42.428;25.618;2023-02-02T05:43:43;21.17;;;10.45;;
74415;SDS011;62850;42.428;25.618;2023-02-02T05:46:09;22.95;;;10.95;;
74415;SDS011;62850;42.428;25.618;2023-02-02T05:48:35;28.45;;;11.65;;
74415;SDS011;62850;42.428;25.618;2023-02-02T05:53:38;33.38;;;14.00;;
74415;SDS011;62850;42.428;25.618;2023-02-02T05:56:04;26.67;;;13.05;;
74415;SDS011;62850;42.428;25.618;2023-02-02T05:58:30;21.85;;;10.48;;
74415;SDS011;62850;42.428;25.618;2023-02-02T06:00:55;21.35;;;8.23;;
74415;SDS011;62850;42.428;25.618;2023-02-02T06:03:21;17.33;;;8.02;;
74415;SDS011;62850;42.428;25.618;2023-02-02T06:05:46;11.93;;;6.25;;
74415;SDS011;62850;42.428;25.618;2023-02-02T06:08:12;14.25;;;5.95;;
74415;SDS011;62850;42.428;25.618;2023-02-02T06:10:38;16.10;;;6.70;;
74415;SDS011;62850;42.428;25.618;2023-02-02T06:13:05;16.35;;;7.70;;
74415;SDS011;62850;42.428;25.618;2023-02-02T06:15:30;18.45;;;7.47;;
74415;SDS011;62850;42.428;25.618;2023-02-02T06:17:57;20.75;;;7.47;;
74415;SDS011;62850;42.428;25.618;2023-02-02T06:20:23;13.02;;;6.03;;
74415;SDS011;62850;42.428;25.618;2023-02-02T06:22:48;14.90;;;7.10;;
74415;SDS011;62850;42.428;25.618;2023-02-02T06:25:14;18.40;;;8.93;;
74415;SDS011;62850;42.428;25.618;2023-02-02T06:27:40;15.13;;;5.28;;
74415;SDS011;62850;42.428;25.618;2023-02-02T06:30:05;16.80;;;5.32;;
74415;SDS011;62850;42.428;25.618;2023-02-02T06:32:31;14.43;;;6.28;;
74415;SDS011;62850;42.428;25.618;2023-02-02T06:34:57;14.40;;;5.47;;
74415;SDS011;62850;42.428;25.618;2023-02-02T06:37:22;11.80;;;5.07;;
74415;SDS011;62850;42.428;25.618;2023-02-02T06:39:48;7.70;;;4.03;;
74415;SDS011;62850;42.428;25.618;2023-02-02T06:42:16;7.32;;;3.33;;
74415;SDS011;62850;42.428;25.618;2023-02-02T06:44:42;6.30;;;2.70;;
74415;SDS011;62850;42.428;25.618;2023-02-02T06:47:07;8.55;;;3.70;;
74415;SDS011;62850;42.428;25.618;2023-02-02T06:49:33;7.38;;;3.72;;
74415;SDS011;62850;42.428;25.618;2023-02-02T06:51:58;8.48;;;3.20;;
74415;SDS011;62850;42.428;25.618;2023-02-02T06:54:24;7.68;;;3.05;;
74415;SDS011;62850;42.428;25.618;2023-02-02T06:56:49;10.07;;;4.22;;
74415;SDS011;62850;42.428;25.618;2023-02-02T06:59:15;9.32;;;3.50;;
74415;SDS011;62850;42.428;25.618;2023-02-02T07:01:40;7.97;;;3.35;;
74415;SDS011;62850;42.428;25.618;2023-02-02T07:04:06;8.02;;;3.65;;
74415;SDS011;62850;42.428;25.618;2023-02-02T07:06:31;9.27;;;3.67;;
74415;SDS011;62850;42.428;25.618;2023-02-02T07:08:57;6.97;;;2.85;;
74415;SDS011;62850;42.428;25.618;2023-02-02T07:11:22;7.20;;;2.50;;
74415;SDS011;62850;42.428;25.618;2023-02-02T07:13:48;6.60;;;2.97;;
74415;SDS011;62850;42.428;25.618;2023-02-02T07:16:15;8.75;;;3.38;;
74415;SDS011;62850;42.428;25.618;2023-02-02T07:18:41;7.35;;;3.78;;
74415;SDS011;62850;42.428;25.618;2023-02-02T07:21:07;8.27;;;4.03;;
74415;SDS011;62850;42.428;25.618;2023-02-02T07:23:39;12.43;;;4.97;;
74415;SDS011;62850;42.428;25.618;2023-02-02T07:26:05;14.00;;;3.75;;
74415;SDS011;62850;42.428;25.618;2023-02-02T07:28:32;9.85;;;4.00;;
74415;SDS011;62850;42.428;25.618;2023-02-02T07:30:59;9.73;;;3.70;;
74415;SDS011;62850;42.428;25.618;2023-02-02T07:33:25;8.15;;;2.30;;
74415;SDS011;62850;42.428;25.618;2023-02-02T07:35:51;9.00;;;3.60;;
74415;SDS011;62850;42.428;25.618;2023-02-02T07:38:17;16.00;;;6.47;;
74415;SDS011;62850;42.428;25.618;2023-02-02T07:40:43;5.47;;;2.33;;
74415;SDS011;62850;42.428;25.618;2023-02-02T07:43:09;6.30;;;2.10;;
74415;SDS011;62850;42.428;25.618;2023-02-02T07:45:35;4.60;;;1.58;;
74415;SDS011;62850;42.428;25.618;2023-02-02T07:48:00;5.63;;;2.42;;
74415;SDS011;62850;42.428;25.618;2023-02-02T07:50:27;10.75;;;3.58;;
74415;SDS011;62850;42.428;25.618;2023-02-02T07:52:53;8.80;;;3.38;;
74415;SDS011;62850;42.428;25.618;2023-02-02T07:55:19;7.88;;;3.15;;
74415;SDS011;62850;42.428;25.618;2023-02-02T07:57:45;9.15;;;3.00;;
74415;SDS011;62850;42.428;25.618;2023-02-02T08:00:10;5.80;;;2.85;;
74415;SDS011;62850;42.428;25.618;2023-02-02T08:02:36;5.35;;;1.95;;
74415;SDS011;62850;42.428;25.618;2023-02-02T08:05:02;3.30;;;1.63;;
74415;SDS011;62850;42.428;25.618;2023-02-02T08:07:28;5.55;;;2.15;;
74415;SDS011;62850;42.428;25.618;2023-02-02T08:09:56;5.72;;;2.00;;
74415;SDS011;62850;42.428;25.618;2023-02-02T08:12:21;7.18;;;2.50;;
74415;SDS011;62850;42.428;25.618;2023-02-02T08:14:48;7.18;;;2.25;;
74415;SDS011;62850;42.428;25.618;2023-02-02T08:17:14;4.30;;;2.00;;
74415;SDS011;62850;42.428;25.618;2023-02-02T08:19:42;5.68;;;2.67;;
74415;SDS011;62850;42.428;25.618;2023-02-02T08:22:08;6.15;;;2.28;;
74415;SDS011;62850;42.428;25.618;2023-02-02T08:24:34;5.57;;;2.15;;
74415;SDS011;62850;42.428;25.618;2023-02-02T08:27:05;2.80;;;1.00;;
74415;SDS011;62850;42.428;25.618;2023-02-02T08:29:31;7.38;;;1.92;;
74415;SDS011;62850;42.428;25.618;2023-02-02T08:31:58;4.88;;;1.75;;
74415;SDS011;62850;42.428;25.618;2023-02-02T08:34:24;6.05;;;2.65;;
74415;SDS011;62850;42.428;25.618;2023-02-02T08:36:49;14.20;;;2.92;;
74415;SDS011;62850;42.428;25.618;2023-02-02T08:39:15;8.30;;;1.90;;
74415;SDS011;62850;42.428;25.618;2023-02-02T08:41:41;62.63;;;18.52;;
74415;SDS011;62850;42.428;25.618;2023-02-02T08:44:07;34.20;;;9.80;;
74415;SDS011;62850;42.428;25.618;2023-02-02T08:46:34;15.57;;;6.18;;
74415;SDS011;62850;42.428;25.618;2023-02-02T08:49:00;3.15;;;1.40;;
74415;SDS011;62850;42.428;25.618;2023-02-02T08:51:25;2.90;;;1.10;;
74415;SDS011;62850;42.428;25.618;2023-02-02T08:53:51;2.88;;;1.27;;
74415;SDS011;62850;42.428;25.618;2023-02-02T08:56:18;3.72;;;1.50;;
74415;SDS011;62850;42.428;25.618;2023-02-02T08:58:45;3.63;;;1.50;;
74415;SDS011;62850;42.428;25.618;2023-02-02T09:01:13;5.72;;;2.13;;
74415;SDS011;62850;42.428;25.618;2023-02-02T09:03:44;3.67;;;1.38;;
74415;SDS011;62850;42.428;25.618;2023-02-02T09:06:10;5.93;;;2.33;;
74415;SDS011;62850;42.428;25.618;2023-02-02T09:08:38;3.13;;;1.10;;
74415;SDS011;62850;42.428;25.618;2023-02-02T09:11:08;6.25;;;2.50;;
74415;SDS011;62850;42.428;25.618;2023-02-02T09:13:36;5.38;;;2.00;;
74415;SDS011;62850;42.428;25.618;2023-02-02T09:16:03;5.60;;;2.38;;
74415;SDS011;62850;42.428;25.618;2023-02-02T09:18:30;8.00;;;2.83;;
74415;SDS011;62850;42.428;25.618;2023-02-02T09:21:00;8.40;;;2.90;;
74415;SDS011;62850;42.428;25.618;2023-02-02T09:23:29;4.50;;;2.00;;
74415;SDS011;62850;42.428;25.618;2023-02-02T09:25:55;5.20;;;1.80;;
74415;SDS011;62850;42.428;25.618;2023-02-02T09:28:21;11.63;;;3.97;;
74415;SDS011;62850;42.428;25.618;2023-02-02T09:30:46;5.15;;;2.10;;
74415;SDS011;62850;42.428;25.618;2023-02-02T09:33:12;5.38;;;1.63;;
74415;SDS011;62850;42.428;25.618;2023-02-02T09:35:37;3.20;;;1.10;;
74415;SDS011;62850;42.428;25.618;2023-02-02T09:38:03;3.47;;;1.27;;
74415;SDS011;62850;42.428;25.618;2023-02-02T09:40:30;4.80;;;2.00;;
74415;SDS011;62850;42.428;25.618;2023-02-02T09:48:39;4.15;;;1.77;;
74415;SDS011;62850;42.428;25.618;2023-02-02T09:51:14;3.60;;;1.40;;
74415;SDS011;62850;42.428;25.618;2023-02-02T09:53:44;5.03;;;1.30;;
74415;SDS011;62850;42.428;25.618;2023-02-02T09:56:17;6.53;;;2.35;;
74415;SDS011;62850;42.428;25.618;2023-02-02T09:58:54;6.32;;;2.40;;
74415;SDS011;62850;42.428;25.618;2023-02-02T10:01:24;5.63;;;1.52;;
74415;SDS011;62850;42.428;25.618;2023-02-02T10:09:04;5.20;;;1.85;;
74415;SDS011;62850;42.428;25.618;2023-02-02T10:12:01;3.08;;;1.42;;
74415;SDS011;62850;42.428;25.618;2023-02-02T10:14:40;3.47;;;1.70;;
74415;SDS011;62850;42.428;25.618;2023-02-02T10:19:45;4.32;;;1.60;;
74415;SDS011;62850;42.428;25.618;2023-02-02T10:22:16;6.50;;;1.75;;
74415;SDS011;62850;42.428;25.618;2023-02-02T10:24:45;3.33;;;1.48;;
74415;SDS011;62850;42.428;25.618;2023-02-02T10:27:13;4.80;;;2.00;;
74415;SDS011;62850;42.428;25.618;2023-02-02T10:43:42;4.38;;;1.63;;
74415;SDS011;62850;42.428;25.618;2023-02-02T10:46:13;4.47;;;1.48;;
74415;SDS011;62850;42.428;25.618;2023-02-02T10:48:44;3.83;;;1.20;;
74415;SDS011;62850;42.428;25.618;2023-02-02T10:51:13;2.47;;;1.00;;
74415;SDS011;62850;42.428;25.618;2023-02-02T10:53:42;5.82;;;3.35;;
74415;SDS011;62850;42.428;25.618;2023-02-02T10:56:15;2.40;;;1.00;;
74415;SDS011;62850;42.428;25.618;2023-02-02T10:59:03;3.30;;;1.20;;
74415;SDS011;62850;42.428;25.618;2023-02-02T11:01:31;2.17;;;1.00;;
74415;SDS011;62850;42.428;25.618;2023-02-02T11:03:57;11.10;;;6.55;;
74415;SDS011;62850;42.428;25.618;2023-02-02T11:06:41;3.58;;;1.50;;
74415;SDS011;62850;42.428;25.618;2023-02-02T11:09:20;2.83;;;1.00;;
74415;SDS011;62850;42.428;25.618;2023-02-02T11:12:08;3.70;;;0.75;;
74415;SDS011;62850;42.428;25.618;2023-02-02T11:14:46;1.95;;;0.82;;
74415;SDS011;62850;42.428;25.618;2023-02-02T11:17:30;3.28;;;1.30;;
74415;SDS011;62850;42.428;25.618;2023-02-02T11:19:57;32.60;;;9.02;;
74415;SDS011;62850;42.428;25.618;2023-02-02T11:25:04;5.93;;;2.38;;
74415;SDS011;62850;42.428;25.618;2023-02-02T11:27:33;3.92;;;1.90;;
74415;SDS011;62850;42.428;25.618;2023-02-02T11:32:51;5.03;;;1.77;;
74415;SDS011;62850;42.428;25.618;2023-02-02T11:40:40;4.07;;;1.55;;
74415;SDS011;62850;42.428;25.618;2023-02-02T11:43:18;5.90;;;2.47;;
74415;SDS011;62850;42.428;25.618;2023-02-02T11:45:56;5.20;;;2.30;;
74415;SDS011;62850;42.428;25.618;2023-02-02T11:48:30;3.47;;;1.40;;
74415;SDS011;62850;42.428;25.618;2023-02-02T11:50:59;3.40;;;1.60;;
74415;SDS011;62850;42.428;25.618;2023-02-02T11:53:27;8.77;;;2.90;;
74415;SDS011;62850;42.428;25.618;2023-02-02T11:56:25;4.60;;;1.95;;
74415;SDS011;62850;42.428;25.618;2023-02-02T11:58:52;5.05;;;1.90;;
74415;SDS011;62850;42.428;25.618;2023-02-02T12:01:38;4.70;;;2.03;;
74415;SDS011;62850;42.428;25.618;2023-02-02T12:04:20;5.38;;;2.03;;
74415;SDS011;62850;42.428;25.618;2023-02-02T12:06:49;5.00;;;2.42;;
74415;SDS011;62850;42.428;25.618;2023-02-02T12:09:22;5.82;;;2.20;;
74415;SDS011;62850;42.428;25.618;2023-02-02T12:28:03;6.18;;;2.15;;
74415;SDS011;62850;42.428;25.618;2023-02-02T12:33:20;4.28;;;1.77;;
74415;SDS011;62850;42.428;25.618;2023-02-02T12:35:57;5.68;;;1.92;;
74415;SDS011;62850;42.428;25.618;2023-02-02T13:01:09;5.22;;;2.28;;
74415;SDS011;62850;42.428;25.618;2023-02-02T13:09:36;5.78;;;2.72;;
74415;SDS011;62850;42.428;25.618;2023-02-02T13:12:14;7.20;;;2.53;;
74415;SDS011;62850;42.428;25.618;2023-02-02T13:14:47;5.55;;;2.28;;
74415;SDS011;62850;42.428;25.618;2023-02-02T13:17:28;6.28;;;2.85;;
74415;SDS011;62850;42.428;25.618;2023-02-02T13:20:02;12.05;;;4.03;;
74415;SDS011;62850;42.428;25.618;2023-02-02T13:22:35;8.48;;;3.42;;
74415;SDS011;62850;42.428;25.618;2023-02-02T13:25:05;4.22;;;1.88;;
74415;SDS011;62850;42.428;25.618;2023-02-02T13:27:39;6.43;;;2.53;;
74415;SDS011;62850;42.428;25.618;2023-02-02T13:33:04;7.53;;;3.00;;
74415;SDS011;62850;42.428;25.618;2023-02-02T13:35:51;6.70;;;2.58;;
74415;SDS011;62850;42.428;25.618;2023-02-02T13:38:26;5.55;;;2.30;;
74415;SDS011;62850;42.428;25.618;2023-02-02T13:41:06;6.03;;;2.00;;
74415;SDS011;62850;42.428;25.618;2023-02-02T13:43:42;5.38;;;2.13;;
74415;SDS011;62850;42.428;25.618;2023-02-02T14:03:01;5.68;;;2.67;;
74415;SDS011;62850;42.428;25.618;2023-02-02T14:05:30;5.47;;;2.45;;
74415;SDS011;62850;42.428;25.618;2023-02-02T14:08:20;7.45;;;2.60;;
74415;SDS011;62850;42.428;25.618;2023-02-02T14:18:55;4.65;;;2.17;;
74415;SDS011;62850;42.428;25.618;2023-02-02T14:26:51;4.38;;;2.08;;
74415;SDS011;62850;42.428;25.618;2023-02-02T14:39:46;7.05;;;2.95;;
74415;SDS011;62850;42.428;25.618;2023-02-02T14:48:17;15.98;;;4.15;;
74415;SDS011;62850;42.428;25.618;2023-02-02T14:50:48;7.43;;;2.80;;
74415;SDS011;62850;42.428;25.618;2023-02-02T14:53:29;8.50;;;2.53;;
74415;SDS011;62850;42.428;25.618;2023-02-02T14:56:13;5.75;;;2.13;;
74415;SDS011;62850;42.428;25.618;2023-02-02T14:58:57;6.18;;;1.95;;
74415;SDS011;62850;42.428;25.618;2023-02-02T15:01:25;6.70;;;1.73;;
74415;SDS011;62850;42.428;25.618;2023-02-02T15:03:55;3.95;;;1.17;;
74415;SDS011;62850;42.428;25.618;2023-02-02T15:06:42;2.88;;;1.00;;
74415;SDS011;62850;42.428;25.618;2023-02-02T15:25:49;2.60;;;0.98;;
74415;SDS011;62850;42.428;25.618;2023-02-02T15:34:00;8.60;;;2.95;;
74415;SDS011;62850;42.428;25.618;2023-02-02T15:36:42;3.90;;;1.70;;
74415;SDS011;62850;42.428;25.618;2023-02-02T15:39:14;2.75;;;1.05;;
74415;SDS011;62850;42.428;25.618;2023-02-02T15:41:44;1.75;;;0.85;;
74415;SDS011;62850;42.428;25.618;2023-02-02T15:44:20;2.20;;;0.80;;
74415;SDS011;62850;42.428;25.618;2023-02-02T15:46:50;2.10;;;0.90;;
74415;SDS011;62850;42.428;25.618;2023-02-02T15:51:46;2.75;;;0.90;;
74415;SDS011;62850;42.428;25.618;2023-02-02T15:54:21;3.53;;;1.13;;
74415;SDS011;62850;42.428;25.618;2023-02-02T15:56:47;2.72;;;1.15;;
74415;SDS011;62850;42.428;25.618;2023-02-02T15:59:16;2.63;;;1.00;;
74415;SDS011;62850;42.428;25.618;2023-02-02T16:01:50;2.20;;;0.82;;
74415;SDS011;62850;42.428;25.618;2023-02-02T16:04:25;2.33;;;0.80;;
74415;SDS011;62850;42.428;25.618;2023-02-02T16:06:55;3.35;;;1.08;;
74415;SDS011;62850;42.428;25.618;2023-02-02T16:09:22;2.03;;;0.57;;
74415;SDS011;62850;42.428;25.618;2023-02-02T16:11:51;4.75;;;1.70;;
74415;SDS011;62850;42.428;25.618;2023-02-02T16:14:17;2.58;;;1.23;;
74415;SDS011;62850;42.428;25.618;2023-02-02T16:16:44;4.38;;;1.80;;
74415;SDS011;62850;42.428;25.618;2023-02-02T16:19:12;4.82;;;2.03;;
74415;SDS011;62850;42.428;25.618;2023-02-02T16:21:44;5.45;;;2.30;;
74415;SDS011;62850;42.428;25.618;2023-02-02T16:24:14;5.07;;;2.20;;
74415;SDS011;62850;42.428;25.618;2023-02-02T16:26:45;5.00;;;1.98;;
74415;SDS011;62850;42.428;25.618;2023-02-02T16:29:11;6.25;;;2.63;;
74415;SDS011;62850;42.428;25.618;2023-02-02T16:31:43;5.63;;;2.40;;
74415;SDS011;62850;42.428;25.618;2023-02-02T16:34:17;6.15;;;2.00;;
74415;SDS011;62850;42.428;25.618;2023-02-02T16:37:04;6.30;;;2.72;;
74415;SDS011;62850;42.428;25.618;2023-02-02T16:39:30;6.90;;;2.85;;
74415;SDS011;62850;42.428;25.618;2023-02-02T16:42:06;5.53;;;2.58;;
74415;SDS011;62850;42.428;25.618;2023-02-02T16:47:04;4.65;;;2.13;;
74415;SDS011;62850;42.428;25.618;2023-02-02T16:50:32;6.47;;;3.13;;
74415;SDS011;62850;42.428;25.618;2023-02-02T16:52:54;10.93;;;4.03;;
74415;SDS011;62850;42.428;25.618;2023-02-02T16:57:56;9.88;;;3.90;;
74415;SDS011;62850;42.428;25.618;2023-02-02T17:00:23;8.43;;;3.70;;
74415;SDS011;62850;42.428;25.618;2023-02-02T17:03:13;10.23;;;3.97;;
74415;SDS011;62850;42.428;25.618;2023-02-02T17:05:50;19.02;;;8.32;;
74415;SDS011;62850;42.428;25.618;2023-02-02T17:08:30;16.63;;;7.38;;
74415;SDS011;62850;42.428;25.618;2023-02-02T17:11:02;12.55;;;5.30;;
74415;SDS011;62850;42.428;25.618;2023-02-02T17:16:00;11.25;;;5.40;;
74415;SDS011;62850;42.428;25.618;2023-02-02T17:18:26;16.05;;;6.50;;
74415;SDS011;62850;42.428;25.618;2023-02-02T17:20:53;17.23;;;6.07;;
74415;SDS011;62850;42.428;25.618;2023-02-02T17:23:23;12.18;;;5.85;;
74415;SDS011;62850;42.428;25.618;2023-02-02T17:25:51;15.23;;;6.15;;
74415;SDS011;62850;42.428;25.618;2023-02-02T17:28:18;11.52;;;6.13;;
74415;SDS011;62850;42.428;25.618;2023-02-02T17:30:45;10.65;;;4.75;;
74415;SDS011;62850;42.428;25.618;2023-02-02T17:33:14;11.02;;;4.60;;
74415;SDS011;62850;42.428;25.618;2023-02-02T17:35:43;13.60;;;5.45;;
74415;SDS011;62850;42.428;25.618;2023-02-02T17:38:10;13.15;;;4.50;;
74415;SDS011;62850;42.428;25.618;2023-02-02T17:40:36;7.43;;;3.63;;
74415;SDS011;62850;42.428;25.618;2023-02-02T17:43:03;11.13;;;4.85;;
74415;SDS011;62850;42.428;25.618;2023-02-02T17:45:34;12.77;;;5.60;;
74415;SDS011;62850;42.428;25.618;2023-02-02T17:48:01;11.13;;;4.90;;
74415;SDS011;62850;42.428;25.618;2023-02-02T17:50:27;7.45;;;2.67;;
74415;SDS011;62850;42.428;25.618;2023-02-02T17:52:54;8.25;;;2.35;;
74415;SDS011;62850;42.428;25.618;2023-02-02T17:55:21;13.00;;;2.90;;